sensor_id;sensor_type;location;lat;lon;timestamp;temperature;humidity
70079;DHT22;57451;52.496;13.456;2023-05-23T00:01:51;19.40;43.20
70079;DHT22;57451;52.496;13.456;2023-05-23T00:04:21;19.40;43.30
70079;DHT22;57451;52.496;13.456;2023-05-23T00:06:53;19.40;43.40
70079;DHT22;57451;52.496;13.456;2023-05-23T00:09:20;19.40;43.30
70079;DHT22;57451;52.496;13.456;2023-05-23T00:11:49;19.40;43.60
70079;DHT22;57451;52.496;13.456;2023-05-23T00:14:16;19.30;43.70
70079;DHT22;57451;52.496;13.456;2023-05-23T00:16:45;19.30;43.70
70079;DHT22;57451;52.496;13.456;2023-05-23T00:19:13;19.30;43.90
70079;DHT22;57451;52.496;13.456;2023-05-23T00:21:46;19.30;43.70
70079;DHT22;57451;52.496;13.456;2023-05-23T00:24:18;19.30;43.90
70079;DHT22;57451;52.496;13.456;2023-05-23T00:26:46;19.20;43.80
70079;DHT22;57451;52.496;13.456;2023-05-23T00:29:15;19.20;43.90
70079;DHT22;57451;52.496;13.456;2023-05-23T00:31:44;19.20;43.90
70079;DHT22;57451;52.496;13.456;2023-05-23T00:34:14;19.10;44.10
70079;DHT22;57451;52.496;13.456;2023-05-23T00:36:41;19.10;44.40
70079;DHT22;57451;52.496;13.456;2023-05-23T00:39:09;19.10;44.10
70079;DHT22;57451;52.496;13.456;2023-05-23T00:41:46;19.10;44.40
70079;DHT22;57451;52.496;13.456;2023-05-23T00:44:19;19.00;44.20
70079;DHT22;57451;52.496;13.456;2023-05-23T00:46:50;19.00;44.00
70079;DHT22;57451;52.496;13.456;2023-05-23T00:49:18;19.00;44.50
70079;DHT22;57451;52.496;13.456;2023-05-23T00:51:46;19.00;44.40
70079;DHT22;57451;52.496;13.456;2023-05-23T00:54:19;19.00;44.40
70079;DHT22;57451;52.496;13.456;2023-05-23T00:56:47;18.90;44.20
70079;DHT22;57451;52.496;13.456;2023-05-23T00:59:15;18.90;44.30
70079;DHT22;57451;52.496;13.456;2023-05-23T01:01:44;18.90;44.40
70079;DHT22;57451;52.496;13.456;2023-05-23T01:04:13;18.80;44.30
70079;DHT22;57451;52.496;13.456;2023-05-23T01:06:43;18.80;44.40
70079;DHT22;57451;52.496;13.456;2023-05-23T01:09:13;18.80;44.40
70079;DHT22;57451;52.496;13.456;2023-05-23T01:11:44;18.80;44.60
70079;DHT22;57451;52.496;13.456;2023-05-23T01:14:19;18.80;44.60
70079;DHT22;57451;52.496;13.456;2023-05-23T01:16:54;18.70;44.60
70079;DHT22;57451;52.496;13.456;2023-05-23T01:19:49;18.70;44.80
70079;DHT22;57451;52.496;13.456;2023-05-23T01:22:22;18.70;44.80
70079;DHT22;57451;52.496;13.456;2023-05-23T01:24:59;18.70;44.90
70079;DHT22;57451;52.496;13.456;2023-05-23T01:27:44;18.70;45.10
70079;DHT22;57451;52.496;13.456;2023-05-23T01:30:17;18.70;44.80
70079;DHT22;57451;52.496;13.456;2023-05-23T01:32:47;18.60;45.10
70079;DHT22;57451;52.496;13.456;2023-05-23T01:35:20;18.60;45.10
70079;DHT22;57451;52.496;13.456;2023-05-23T01:37:48;18.60;45.30
70079;DHT22;57451;52.496;13.456;2023-05-23T01:40:15;18.60;45.10
70079;DHT22;57451;52.496;13.456;2023-05-23T01:42:44;18.60;45.40
70079;DHT22;57451;52.496;13.456;2023-05-23T01:45:14;18.60;45.30
70079;DHT22;57451;52.496;13.456;2023-05-23T01:47:42;18.60;45.80
70079;DHT22;57451;52.496;13.456;2023-05-23T01:50:11;18.50;45.70
70079;DHT22;57451;52.496;13.456;2023-05-23T01:52:39;18.50;45.60
70079;DHT22;57451;52.496;13.456;2023-05-23T01:55:08;18.50;45.90
70079;DHT22;57451;52.496;13.456;2023-05-23T01:57:38;18.40;46.10
70079;DHT22;57451;52.496;13.456;2023-05-23T02:00:08;18.30;46.00
70079;DHT22;57451;52.496;13.456;2023-05-23T02:02:41;18.30;45.90
70079;DHT22;57451;52.496;13.456;2023-05-23T02:05:09;18.30;46.00
70079;DHT22;57451;52.496;13.456;2023-05-23T02:07:38;18.30;46.10
70079;DHT22;57451;52.496;13.456;2023-05-23T02:10:07;18.30;45.60
70079;DHT22;57451;52.496;13.456;2023-05-23T02:12:35;18.30;46.00
70079;DHT22;57451;52.496;13.456;2023-05-23T02:15:03;18.30;46.00
70079;DHT22;57451;52.496;13.456;2023-05-23T02:17:32;18.30;46.20
70079;DHT22;57451;52.496;13.456;2023-05-23T02:20:00;18.30;45.80
70079;DHT22;57451;52.496;13.456;2023-05-23T02:22:27;18.30;46.00
70079;DHT22;57451;52.496;13.456;2023-05-23T02:24:54;18.30;45.70
70079;DHT22;57451;52.496;13.456;2023-05-23T02:27:22;18.30;45.80
70079;DHT22;57451;52.496;13.456;2023-05-23T02:29:49;18.30;45.90
70079;DHT22;57451;52.496;13.456;2023-05-23T02:32:16;18.30;46.50
70079;DHT22;57451;52.496;13.456;2023-05-23T02:34:45;18.20;46.20
70079;DHT22;57451;52.496;13.456;2023-05-23T02:37:16;18.30;46.30
70079;DHT22;57451;52.496;13.456;2023-05-23T02:39:43;18.20;46.30
70079;DHT22;57451;52.496;13.456;2023-05-23T02:42:11;18.30;46.20
70079;DHT22;57451;52.496;13.456;2023-05-23T02:44:38;18.30;46.10
70079;DHT22;57451;52.496;13.456;2023-05-23T02:47:06;18.20;46.20
70079;DHT22;57451;52.496;13.456;2023-05-23T02:49:34;18.20;46.50
70079;DHT22;57451;52.496;13.456;2023-05-23T02:52:03;18.20;46.40
70079;DHT22;57451;52.496;13.456;2023-05-23T02:54:30;18.20;46.30
70079;DHT22;57451;52.496;13.456;2023-05-23T02:56:57;18.20;46.20
70079;DHT22;57451;52.496;13.456;2023-05-23T02:59:25;18.20;46.40
70079;DHT22;57451;52.496;13.456;2023-05-23T03:01:53;18.20;46.20
70079;DHT22;57451;52.496;13.456;2023-05-23T03:04:20;18.20;46.60
70079;DHT22;57451;52.496;13.456;2023-05-23T03:06:48;18.10;46.40
70079;DHT22;57451;52.496;13.456;2023-05-23T03:09:17;18.10;46.40
70079;DHT22;57451;52.496;13.456;2023-05-23T03:11:44;18.10;46.40
70079;DHT22;57451;52.496;13.456;2023-05-23T03:14:12;18.10;46.80
70079;DHT22;57451;52.496;13.456;2023-05-23T03:16:40;18.10;46.50
70079;DHT22;57451;52.496;13.456;2023-05-23T03:19:07;18.10;46.80
70079;DHT22;57451;52.496;13.456;2023-05-23T03:21:35;18.10;46.80
70079;DHT22;57451;52.496;13.456;2023-05-23T03:24:02;18.10;46.60
70079;DHT22;57451;52.496;13.456;2023-05-23T03:26:31;18.10;46.70
70079;DHT22;57451;52.496;13.456;2023-05-23T03:28:58;18.10;46.80
70079;DHT22;57451;52.496;13.456;2023-05-23T03:31:26;18.10;47.20
70079;DHT22;57451;52.496;13.456;2023-05-23T03:33:53;18.10;47.00
70079;DHT22;57451;52.496;13.456;2023-05-23T03:36:21;18.10;47.30
70079;DHT22;57451;52.496;13.456;2023-05-23T03:38:52;18.10;47.50
70079;DHT22;57451;52.496;13.456;2023-05-23T03:41:19;18.10;47.70
70079;DHT22;57451;52.496;13.456;2023-05-23T03:43:49;18.10;48.00
70079;DHT22;57451;52.496;13.456;2023-05-23T03:46:16;18.00;47.80
70079;DHT22;57451;52.496;13.456;2023-05-23T03:48:45;18.10;48.20
70079;DHT22;57451;52.496;13.456;2023-05-23T03:51:12;18.00;47.60
70079;DHT22;57451;52.496;13.456;2023-05-23T03:53:40;18.00;48.50
70079;DHT22;57451;52.496;13.456;2023-05-23T03:56:09;18.00;48.30
70079;DHT22;57451;52.496;13.456;2023-05-23T03:58:37;18.00;48.50
70079;DHT22;57451;52.496;13.456;2023-05-23T04:01:11;18.00;48.30
70079;DHT22;57451;52.496;13.456;2023-05-23T04:03:39;18.00;48.10
70079;DHT22;57451;52.496;13.456;2023-05-23T04:06:07;18.00;47.70
70079;DHT22;57451;52.496;13.456;2023-05-23T04:08:37;18.00;47.50
70079;DHT22;57451;52.496;13.456;2023-05-23T04:11:08;17.90;47.60
70079;DHT22;57451;52.496;13.456;2023-05-23T04:13:37;17.90;47.80
70079;DHT22;57451;52.496;13.456;2023-05-23T04:16:05;17.90;47.60
70079;DHT22;57451;52.496;13.456;2023-05-23T04:18:34;17.90;47.70
70079;DHT22;57451;52.496;13.456;2023-05-23T04:21:06;17.90;47.50
70079;DHT22;57451;52.496;13.456;2023-05-23T04:23:38;17.90;47.30
70079;DHT22;57451;52.496;13.456;2023-05-23T04:26:06;17.90;47.50
70079;DHT22;57451;52.496;13.456;2023-05-23T04:28:38;17.90;47.90
70079;DHT22;57451;52.496;13.456;2023-05-23T04:31:06;17.90;48.20
70079;DHT22;57451;52.496;13.456;2023-05-23T04:33:37;17.90;48.20
70079;DHT22;57451;52.496;13.456;2023-05-23T04:36:06;17.90;48.30
70079;DHT22;57451;52.496;13.456;2023-05-23T04:38:39;17.90;48.60
70079;DHT22;57451;52.496;13.456;2023-05-23T04:41:08;17.90;48.50
70079;DHT22;57451;52.496;13.456;2023-05-23T04:43:57;17.90;48.70
70079;DHT22;57451;52.496;13.456;2023-05-23T04:46:29;17.90;48.30
70079;DHT22;57451;52.496;13.456;2023-05-23T04:49:21;17.90;48.80
70079;DHT22;57451;52.496;13.456;2023-05-23T04:51:50;17.90;48.90
70079;DHT22;57451;52.496;13.456;2023-05-23T04:54:26;17.90;48.80
70079;DHT22;57451;52.496;13.456;2023-05-23T04:56:55;17.90;49.60
70079;DHT22;57451;52.496;13.456;2023-05-23T04:59:24;17.90;49.30
70079;DHT22;57451;52.496;13.456;2023-05-23T05:01:51;17.90;48.50
70079;DHT22;57451;52.496;13.456;2023-05-23T05:04:21;17.90;49.40
70079;DHT22;57451;52.496;13.456;2023-05-23T05:06:50;17.90;49.50
70079;DHT22;57451;52.496;13.456;2023-05-23T05:09:18;17.90;49.80
70079;DHT22;57451;52.496;13.456;2023-05-23T05:11:46;17.80;49.90
70079;DHT22;57451;52.496;13.456;2023-05-23T05:14:14;17.80;49.60
70079;DHT22;57451;52.496;13.456;2023-05-23T05:16:41;17.80;49.40
70079;DHT22;57451;52.496;13.456;2023-05-23T05:19:10;17.80;49.60
70079;DHT22;57451;52.496;13.456;2023-05-23T05:21:39;17.80;49.60
70079;DHT22;57451;52.496;13.456;2023-05-23T05:24:06;17.80;50.00
70079;DHT22;57451;52.496;13.456;2023-05-23T05:26:36;17.80;49.20
70079;DHT22;57451;52.496;13.456;2023-05-23T05:29:04;17.70;49.10
70079;DHT22;57451;52.496;13.456;2023-05-23T05:31:35;17.80;49.50
70079;DHT22;57451;52.496;13.456;2023-05-23T05:34:04;17.70;50.90
70079;DHT22;57451;52.496;13.456;2023-05-23T05:36:32;17.70;50.90
70079;DHT22;57451;52.496;13.456;2023-05-23T05:39:01;17.70;51.40
70079;DHT22;57451;52.496;13.456;2023-05-23T05:41:28;17.70;51.90
70079;DHT22;57451;52.496;13.456;2023-05-23T05:43:55;17.70;51.40
70079;DHT22;57451;52.496;13.456;2023-05-23T05:46:23;17.70;50.20
70079;DHT22;57451;52.496;13.456;2023-05-23T05:48:52;17.70;51.00
70079;DHT22;57451;52.496;13.456;2023-05-23T05:51:20;17.70;51.20
70079;DHT22;57451;52.496;13.456;2023-05-23T05:53:48;17.70;50.70
70079;DHT22;57451;52.496;13.456;2023-05-23T05:56:17;17.70;51.50
70079;DHT22;57451;52.496;13.456;2023-05-23T05:58:45;17.70;51.90
70079;DHT22;57451;52.496;13.456;2023-05-23T06:01:15;17.70;50.40
70079;DHT22;57451;52.496;13.456;2023-05-23T06:03:43;17.60;50.80
70079;DHT22;57451;52.496;13.456;2023-05-23T06:06:11;17.70;50.40
70079;DHT22;57451;52.496;13.456;2023-05-23T06:08:40;17.70;50.80
70079;DHT22;57451;52.496;13.456;2023-05-23T06:11:11;17.70;50.60
70079;DHT22;57451;52.496;13.456;2023-05-23T06:13:39;17.70;50.70
70079;DHT22;57451;52.496;13.456;2023-05-23T06:16:07;17.70;50.90
70079;DHT22;57451;52.496;13.456;2023-05-23T06:18:35;17.70;51.30
70079;DHT22;57451;52.496;13.456;2023-05-23T06:21:02;17.70;51.10
70079;DHT22;57451;52.496;13.456;2023-05-23T06:23:31;17.60;51.20
70079;DHT22;57451;52.496;13.456;2023-05-23T06:25:58;17.70;51.90
70079;DHT22;57451;52.496;13.456;2023-05-23T06:28:26;17.70;51.60
70079;DHT22;57451;52.496;13.456;2023-05-23T06:30:54;17.70;51.40
70079;DHT22;57451;52.496;13.456;2023-05-23T06:33:22;17.70;51.70
70079;DHT22;57451;52.496;13.456;2023-05-23T06:35:49;17.70;51.80
70079;DHT22;57451;52.496;13.456;2023-05-23T06:38:16;17.70;51.40
70079;DHT22;57451;52.496;13.456;2023-05-23T06:40:44;17.70;52.20
70079;DHT22;57451;52.496;13.456;2023-05-23T06:43:12;17.80;51.80
70079;DHT22;57451;52.496;13.456;2023-05-23T06:45:45;17.80;52.80
70079;DHT22;57451;52.496;13.456;2023-05-23T06:48:15;17.80;52.20
70079;DHT22;57451;52.496;13.456;2023-05-23T06:50:43;17.80;51.60
70079;DHT22;57451;52.496;13.456;2023-05-23T06:53:11;17.80;52.20
70079;DHT22;57451;52.496;13.456;2023-05-23T06:55:40;17.90;51.40
70079;DHT22;57451;52.496;13.456;2023-05-23T06:58:11;18.00;51.30
70079;DHT22;57451;52.496;13.456;2023-05-23T07:00:39;18.00;51.30
70079;DHT22;57451;52.496;13.456;2023-05-23T07:03:15;18.10;51.20
70079;DHT22;57451;52.496;13.456;2023-05-23T07:05:44;18.20;51.40
70079;DHT22;57451;52.496;13.456;2023-05-23T07:08:11;18.30;52.00
70079;DHT22;57451;52.496;13.456;2023-05-23T07:10:44;18.30;52.00
70079;DHT22;57451;52.496;13.456;2023-05-23T07:13:28;18.40;51.10
70079;DHT22;57451;52.496;13.456;2023-05-23T07:15:57;18.50;51.20
70079;DHT22;57451;52.496;13.456;2023-05-23T07:18:26;18.60;51.10
70079;DHT22;57451;52.496;13.456;2023-05-23T07:20:54;18.70;51.10
70079;DHT22;57451;52.496;13.456;2023-05-23T07:23:22;18.80;50.70
70079;DHT22;57451;52.496;13.456;2023-05-23T07:25:50;18.90;51.20
70079;DHT22;57451;52.496;13.456;2023-05-23T07:28:38;18.90;51.30
70079;DHT22;57451;52.496;13.456;2023-05-23T07:31:06;19.00;51.20
70079;DHT22;57451;52.496;13.456;2023-05-23T07:33:37;19.10;51.20
70079;DHT22;57451;52.496;13.456;2023-05-23T07:36:05;19.20;51.30
70079;DHT22;57451;52.496;13.456;2023-05-23T07:38:33;19.30;50.70
70079;DHT22;57451;52.496;13.456;2023-05-23T07:41:00;19.30;49.30
70079;DHT22;57451;52.496;13.456;2023-05-23T07:43:39;19.40;48.80
70079;DHT22;57451;52.496;13.456;2023-05-23T07:46:06;19.40;48.60
70079;DHT22;57451;52.496;13.456;2023-05-23T07:48:34;19.50;48.70
70079;DHT22;57451;52.496;13.456;2023-05-23T07:51:04;19.60;48.80
70079;DHT22;57451;52.496;13.456;2023-05-23T07:53:32;19.70;48.10
70079;DHT22;57451;52.496;13.456;2023-05-23T07:56:02;19.80;48.20
70079;DHT22;57451;52.496;13.456;2023-05-23T07:58:35;19.90;48.20
70079;DHT22;57451;52.496;13.456;2023-05-23T08:01:03;20.00;48.10
70079;DHT22;57451;52.496;13.456;2023-05-23T08:03:50;20.10;48.10
70079;DHT22;57451;52.496;13.456;2023-05-23T08:06:26;20.20;48.00
70079;DHT22;57451;52.496;13.456;2023-05-23T08:11:54;20.30;47.20
70079;DHT22;57451;52.496;13.456;2023-05-23T08:14:23;20.30;47.40
70079;DHT22;57451;52.496;13.456;2023-05-23T08:17:24;20.40;47.50
70079;DHT22;57451;52.496;13.456;2023-05-23T08:19:52;20.40;46.60
70079;DHT22;57451;52.496;13.456;2023-05-23T08:22:21;20.50;46.50
70079;DHT22;57451;52.496;13.456;2023-05-23T08:24:56;20.40;46.30
70079;DHT22;57451;52.496;13.456;2023-05-23T08:27:31;20.50;46.20
70079;DHT22;57451;52.496;13.456;2023-05-23T08:30:40;20.40;46.30
70079;DHT22;57451;52.496;13.456;2023-05-23T08:33:09;20.60;46.90
70079;DHT22;57451;52.496;13.456;2023-05-23T08:35:38;20.60;46.80
70079;DHT22;57451;52.496;13.456;2023-05-23T08:38:11;20.70;47.20
70079;DHT22;57451;52.496;13.456;2023-05-23T08:40:50;20.80;47.60
70079;DHT22;57451;52.496;13.456;2023-05-23T08:43:22;20.90;48.50
70079;DHT22;57451;52.496;13.456;2023-05-23T08:45:50;21.00;47.50
70079;DHT22;57451;52.496;13.456;2023-05-23T08:48:19;21.10;47.70
70079;DHT22;57451;52.496;13.456;2023-05-23T08:50:50;21.30;47.70
70079;DHT22;57451;52.496;13.456;2023-05-23T08:53:25;21.30;47.10
70079;DHT22;57451;52.496;13.456;2023-05-23T08:56:01;21.40;47.60
70079;DHT22;57451;52.496;13.456;2023-05-23T08:58:38;21.40;47.50
70079;DHT22;57451;52.496;13.456;2023-05-23T09:01:09;21.50;47.10
70079;DHT22;57451;52.496;13.456;2023-05-23T09:03:39;21.50;47.20
70079;DHT22;57451;52.496;13.456;2023-05-23T09:06:20;21.60;47.30
70079;DHT22;57451;52.496;13.456;2023-05-23T09:08:50;21.70;47.30
70079;DHT22;57451;52.496;13.456;2023-05-23T09:11:20;21.70;47.20
70079;DHT22;57451;52.496;13.456;2023-05-23T09:13:49;21.80;47.70
70079;DHT22;57451;52.496;13.456;2023-05-23T09:16:18;21.80;48.30
70079;DHT22;57451;52.496;13.456;2023-05-23T09:18:50;21.90;48.50
70079;DHT22;57451;52.496;13.456;2023-05-23T09:21:22;22.00;48.60
70079;DHT22;57451;52.496;13.456;2023-05-23T09:24:12;22.10;49.00
70079;DHT22;57451;52.496;13.456;2023-05-23T09:26:39;22.30;48.60
70079;DHT22;57451;52.496;13.456;2023-05-23T09:29:07;22.40;48.50
70079;DHT22;57451;52.496;13.456;2023-05-23T09:31:35;22.50;48.60
70079;DHT22;57451;52.496;13.456;2023-05-23T09:34:03;22.70;48.20
70079;DHT22;57451;52.496;13.456;2023-05-23T09:36:32;22.80;48.50
70079;DHT22;57451;52.496;13.456;2023-05-23T09:39:03;22.80;48.60
70079;DHT22;57451;52.496;13.456;2023-05-23T09:41:33;22.90;48.90
70079;DHT22;57451;52.496;13.456;2023-05-23T09:44:05;22.90;49.20
70079;DHT22;57451;52.496;13.456;2023-05-23T09:46:34;23.00;49.00
70079;DHT22;57451;52.496;13.456;2023-05-23T09:49:09;23.20;49.00
70079;DHT22;57451;52.496;13.456;2023-05-23T09:51:41;23.20;49.00
70079;DHT22;57451;52.496;13.456;2023-05-23T09:54:09;23.30;48.70
70079;DHT22;57451;52.496;13.456;2023-05-23T09:56:40;23.30;49.00
70079;DHT22;57451;52.496;13.456;2023-05-23T09:59:12;23.40;49.40
70079;DHT22;57451;52.496;13.456;2023-05-23T10:01:44;23.50;48.80
70079;DHT22;57451;52.496;13.456;2023-05-23T10:04:15;23.50;48.60
70079;DHT22;57451;52.496;13.456;2023-05-23T10:06:50;23.50;48.70
70079;DHT22;57451;52.496;13.456;2023-05-23T10:09:22;23.40;49.00
70079;DHT22;57451;52.496;13.456;2023-05-23T10:12:41;23.40;48.90
70079;DHT22;57451;52.496;13.456;2023-05-23T10:15:13;23.60;49.10
70079;DHT22;57451;52.496;13.456;2023-05-23T10:18:01;23.70;49.10
70079;DHT22;57451;52.496;13.456;2023-05-23T10:20:31;23.60;49.40
70079;DHT22;57451;52.496;13.456;2023-05-23T10:22:59;23.60;48.60
70079;DHT22;57451;52.496;13.456;2023-05-23T10:25:28;23.60;48.30
70079;DHT22;57451;52.496;13.456;2023-05-23T10:27:58;23.60;49.10
70079;DHT22;57451;52.496;13.456;2023-05-23T10:30:29;23.80;48.50
70079;DHT22;57451;52.496;13.456;2023-05-23T10:32:58;23.80;48.40
70079;DHT22;57451;52.496;13.456;2023-05-23T10:35:39;23.70;49.10
70079;DHT22;57451;52.496;13.456;2023-05-23T10:38:11;23.70;49.50
70079;DHT22;57451;52.496;13.456;2023-05-23T10:40:49;23.80;49.80
70079;DHT22;57451;52.496;13.456;2023-05-23T10:43:26;24.00;49.70
70079;DHT22;57451;52.496;13.456;2023-05-23T10:45:55;24.10;49.30
70079;DHT22;57451;52.496;13.456;2023-05-23T10:48:32;24.20;49.60
70079;DHT22;57451;52.496;13.456;2023-05-23T10:51:04;24.30;50.00
70079;DHT22;57451;52.496;13.456;2023-05-23T10:53:34;24.40;50.60
70079;DHT22;57451;52.496;13.456;2023-05-23T10:56:04;24.40;49.90
70079;DHT22;57451;52.496;13.456;2023-05-23T10:58:35;24.50;50.50
70079;DHT22;57451;52.496;13.456;2023-05-23T11:01:06;24.40;51.50
70079;DHT22;57451;52.496;13.456;2023-05-23T11:03:47;24.30;51.50
70079;DHT22;57451;52.496;13.456;2023-05-23T11:06:30;24.20;52.30
70079;DHT22;57451;52.496;13.456;2023-05-23T11:09:03;24.10;52.40
70079;DHT22;57451;52.496;13.456;2023-05-23T11:11:53;24.00;53.00
70079;DHT22;57451;52.496;13.456;2023-05-23T11:14:33;24.10;53.00
70079;DHT22;57451;52.496;13.456;2023-05-23T11:17:15;24.10;52.90
70079;DHT22;57451;52.496;13.456;2023-05-23T11:19:55;24.00;53.00
70079;DHT22;57451;52.496;13.456;2023-05-23T11:22:27;23.90;53.20
70079;DHT22;57451;52.496;13.456;2023-05-23T11:24:56;23.90;53.20
70079;DHT22;57451;52.496;13.456;2023-05-23T11:27:28;24.00;53.00
70079;DHT22;57451;52.496;13.456;2023-05-23T11:30:02;24.00;53.30
70079;DHT22;57451;52.496;13.456;2023-05-23T11:32:31;23.90;53.30
70079;DHT22;57451;52.496;13.456;2023-05-23T11:34:59;23.70;53.60
70079;DHT22;57451;52.496;13.456;2023-05-23T11:37:28;23.60;53.60
70079;DHT22;57451;52.496;13.456;2023-05-23T11:39:56;23.50;53.80
70079;DHT22;57451;52.496;13.456;2023-05-23T11:42:24;23.40;54.10
70079;DHT22;57451;52.496;13.456;2023-05-23T11:44:52;23.30;54.40
70079;DHT22;57451;52.496;13.456;2023-05-23T11:47:21;23.20;54.20
70079;DHT22;57451;52.496;13.456;2023-05-23T11:49:49;23.20;54.50
70079;DHT22;57451;52.496;13.456;2023-05-23T11:52:17;23.20;54.50
70079;DHT22;57451;52.496;13.456;2023-05-23T11:54:44;23.20;54.60
70079;DHT22;57451;52.496;13.456;2023-05-23T11:57:12;23.10;54.40
70079;DHT22;57451;52.496;13.456;2023-05-23T11:59:41;23.00;54.80
70079;DHT22;57451;52.496;13.456;2023-05-23T12:02:08;22.80;54.90
70079;DHT22;57451;52.496;13.456;2023-05-23T12:04:38;22.60;55.70
70079;DHT22;57451;52.496;13.456;2023-05-23T12:07:05;22.20;56.40
70079;DHT22;57451;52.496;13.456;2023-05-23T12:09:41;22.10;56.80
70079;DHT22;57451;52.496;13.456;2023-05-23T12:12:09;22.00;57.30
70079;DHT22;57451;52.496;13.456;2023-05-23T12:14:37;21.90;57.50
70079;DHT22;57451;52.496;13.456;2023-05-23T12:17:11;21.90;57.50
70079;DHT22;57451;52.496;13.456;2023-05-23T12:19:44;21.90;57.70
70079;DHT22;57451;52.496;13.456;2023-05-23T12:22:12;21.80;57.60
70079;DHT22;57451;52.496;13.456;2023-05-23T12:24:44;21.70;58.00
70079;DHT22;57451;52.496;13.456;2023-05-23T12:27:14;21.60;58.20
70079;DHT22;57451;52.496;13.456;2023-05-23T12:29:49;21.50;58.40
70079;DHT22;57451;52.496;13.456;2023-05-23T12:32:17;21.60;58.70
70079;DHT22;57451;52.496;13.456;2023-05-23T12:34:48;21.70;58.10
70079;DHT22;57451;52.496;13.456;2023-05-23T12:37:16;21.60;58.20
70079;DHT22;57451;52.496;13.456;2023-05-23T12:39:47;21.60;58.00
70079;DHT22;57451;52.496;13.456;2023-05-23T12:42:14;21.70;57.80
70079;DHT22;57451;52.496;13.456;2023-05-23T12:44:42;21.70;57.70
70079;DHT22;57451;52.496;13.456;2023-05-23T12:47:10;21.70;57.60
70079;DHT22;57451;52.496;13.456;2023-05-23T12:49:38;21.60;57.90
70079;DHT22;57451;52.496;13.456;2023-05-23T12:52:07;21.60;57.80
70079;DHT22;57451;52.496;13.456;2023-05-23T12:54:34;21.60;57.60
70079;DHT22;57451;52.496;13.456;2023-05-23T12:57:02;21.60;57.40
70079;DHT22;57451;52.496;13.456;2023-05-23T12:59:30;21.50;57.50
70079;DHT22;57451;52.496;13.456;2023-05-23T13:01:57;21.50;58.00
70079;DHT22;57451;52.496;13.456;2023-05-23T13:04:26;21.40;57.50
70079;DHT22;57451;52.496;13.456;2023-05-23T13:06:58;21.40;57.50
70079;DHT22;57451;52.496;13.456;2023-05-23T13:09:27;21.30;57.50
70079;DHT22;57451;52.496;13.456;2023-05-23T13:11:54;21.30;57.70
70079;DHT22;57451;52.496;13.456;2023-05-23T13:14:22;21.30;58.00
70079;DHT22;57451;52.496;13.456;2023-05-23T13:16:49;21.20;57.60
70079;DHT22;57451;52.496;13.456;2023-05-23T13:19:18;21.20;57.70
70079;DHT22;57451;52.496;13.456;2023-05-23T13:21:46;21.20;57.70
70079;DHT22;57451;52.496;13.456;2023-05-23T13:24:16;21.30;57.60
70079;DHT22;57451;52.496;13.456;2023-05-23T13:26:45;21.40;57.90
70079;DHT22;57451;52.496;13.456;2023-05-23T13:29:13;21.40;57.90
70079;DHT22;57451;52.496;13.456;2023-05-23T13:31:40;21.40;57.80
70079;DHT22;57451;52.496;13.456;2023-05-23T13:34:08;21.30;58.00
70079;DHT22;57451;52.496;13.456;2023-05-23T13:36:36;21.20;57.90
70079;DHT22;57451;52.496;13.456;2023-05-23T13:39:03;21.10;58.60
70079;DHT22;57451;52.496;13.456;2023-05-23T13:41:31;21.00;58.80
70079;DHT22;57451;52.496;13.456;2023-05-23T13:44:00;20.90;58.80
70079;DHT22;57451;52.496;13.456;2023-05-23T13:46:28;20.80;58.90
70079;DHT22;57451;52.496;13.456;2023-05-23T13:48:55;20.80;59.10
70079;DHT22;57451;52.496;13.456;2023-05-23T13:51:23;20.80;59.10
70079;DHT22;57451;52.496;13.456;2023-05-23T13:53:51;20.70;59.40
70079;DHT22;57451;52.496;13.456;2023-05-23T13:56:18;20.70;59.90
70079;DHT22;57451;52.496;13.456;2023-05-23T13:58:46;20.60;59.60
70079;DHT22;57451;52.496;13.456;2023-05-23T14:01:15;20.60;60.00
70079;DHT22;57451;52.496;13.456;2023-05-23T14:03:44;20.50;60.30
70079;DHT22;57451;52.496;13.456;2023-05-23T14:06:11;20.40;60.30
70079;DHT22;57451;52.496;13.456;2023-05-23T14:08:39;20.40;60.10
70079;DHT22;57451;52.496;13.456;2023-05-23T14:11:08;20.40;60.20
70079;DHT22;57451;52.496;13.456;2023-05-23T14:13:37;20.40;60.30
70079;DHT22;57451;52.496;13.456;2023-05-23T14:16:05;20.40;60.30
70079;DHT22;57451;52.496;13.456;2023-05-23T14:18:33;20.30;60.30
70079;DHT22;57451;52.496;13.456;2023-05-23T14:21:01;20.30;60.30
70079;DHT22;57451;52.496;13.456;2023-05-23T14:23:28;20.20;60.30
70079;DHT22;57451;52.496;13.456;2023-05-23T14:25:57;20.20;60.20
70079;DHT22;57451;52.496;13.456;2023-05-23T14:28:25;20.20;60.80
70079;DHT22;57451;52.496;13.456;2023-05-23T14:30:54;20.10;60.60
70079;DHT22;57451;52.496;13.456;2023-05-23T14:33:22;20.20;60.70
70079;DHT22;57451;52.496;13.456;2023-05-23T14:35:51;20.10;60.70
70079;DHT22;57451;52.496;13.456;2023-05-23T14:38:18;20.10;60.60
70079;DHT22;57451;52.496;13.456;2023-05-23T14:40:46;20.20;60.90
70079;DHT22;57451;52.496;13.456;2023-05-23T14:43:15;20.10;61.10
70079;DHT22;57451;52.496;13.456;2023-05-23T14:45:42;19.90;61.50
70079;DHT22;57451;52.496;13.456;2023-05-23T14:48:10;19.80;61.60
70079;DHT22;57451;52.496;13.456;2023-05-23T14:50:38;19.80;61.90
70079;DHT22;57451;52.496;13.456;2023-05-23T14:53:08;19.80;61.80
70079;DHT22;57451;52.496;13.456;2023-05-23T14:55:36;19.80;61.80
70079;DHT22;57451;52.496;13.456;2023-05-23T14:58:03;19.80;62.10
70079;DHT22;57451;52.496;13.456;2023-05-23T15:00:32;19.60;62.50
70079;DHT22;57451;52.496;13.456;2023-05-23T15:02:59;19.60;62.80
70079;DHT22;57451;52.496;13.456;2023-05-23T15:05:27;19.40;63.20
70079;DHT22;57451;52.496;13.456;2023-05-23T15:07:55;19.40;63.50
70079;DHT22;57451;52.496;13.456;2023-05-23T15:10:25;19.40;63.70
70079;DHT22;57451;52.496;13.456;2023-05-23T15:12:52;19.30;63.90
70079;DHT22;57451;52.496;13.456;2023-05-23T15:15:20;19.30;63.90
70079;DHT22;57451;52.496;13.456;2023-05-23T15:17:49;19.20;63.90
70079;DHT22;57451;52.496;13.456;2023-05-23T15:20:17;19.10;63.90
70079;DHT22;57451;52.496;13.456;2023-05-23T15:22:45;19.00;63.60
70079;DHT22;57451;52.496;13.456;2023-05-23T15:25:12;19.00;63.50
70079;DHT22;57451;52.496;13.456;2023-05-23T15:27:41;18.80;63.40
70079;DHT22;57451;52.496;13.456;2023-05-23T15:30:11;18.80;63.10
70079;DHT22;57451;52.496;13.456;2023-05-23T15:32:38;18.70;62.70
70079;DHT22;57451;52.496;13.456;2023-05-23T15:35:07;18.70;62.70
70079;DHT22;57451;52.496;13.456;2023-05-23T15:37:34;18.60;62.80